SAS26L ESSA-EFHK
Flight info
| Callsign | SAS26L |
|---|---|
| Flight time | 0h 40m |
| Altitude | 29000 |
| Route | TOVRI N851 RIKUM DCT RIRIP Y364 LAKUT |
| Aircraft | B738/M-SDE2E3FGHIRWXY/LB1 |
Departure
| Time | 2026-04-23 17:35 |
|---|---|
| Airport | Stockholm-Arlanda Airport (ESSA) |
Arrival
| Time | 2026-04-23 18:16 |
|---|---|
| Airport | Helsinki Vantaa Airport (EFHK) |
| Time | Latitude | Longitude | Altitude | Speed | Heading |
|---|---|---|---|---|---|
| 2026-04-23 16:59 | 59.65035 | 17.92579 | 116 ft | 0 kts | 40° |
| 2026-04-23 17:22 | 59.65018 | 17.92552 | 111 ft | 4 kts | 34° |
| 2026-04-23 17:22 | 59.64974 | 17.92523 | 116 ft | 4 kts | 315° |
| 2026-04-23 17:23 | 59.64970 | 17.92541 | 112 ft | 0 kts | 268° |
| 2026-04-23 17:30 | 59.64969 | 17.92478 | 114 ft | 12 kts | 267° |
| 2026-04-23 17:31 | 59.64994 | 17.92333 | 115 ft | 12 kts | 327° |
| 2026-04-23 17:31 | 59.65079 | 17.92332 | 112 ft | 17 kts | 9° |
| 2026-04-23 17:31 | 59.65198 | 17.92375 | 117 ft | 17 kts | 13° |
| 2026-04-23 17:31 | 59.65310 | 17.92473 | 115 ft | 19 kts | 32° |
| 2026-04-23 17:32 | 59.65410 | 17.92649 | 116 ft | 20 kts | 55° |
| 2026-04-23 17:32 | 59.65476 | 17.92914 | 115 ft | 27 kts | 69° |
| 2026-04-23 17:32 | 59.65533 | 17.93254 | 113 ft | 23 kts | 56° |
| 2026-04-23 17:32 | 59.65658 | 17.93363 | 114 ft | 18 kts | 36° |
| 2026-04-23 17:33 | 59.65713 | 17.93466 | 112 ft | 3 kts | 45° |
| 2026-04-23 17:33 | 59.65717 | 17.93475 | 113 ft | 0 kts | 46° |
| 2026-04-23 17:33 | 59.65720 | 17.93482 | 115 ft | 8 kts | 46° |
| 2026-04-23 17:34 | 59.65810 | 17.93660 | 114 ft | 20 kts | 45° |
| 2026-04-23 17:34 | 59.65875 | 17.93864 | 116 ft | 13 kts | 73° |
| 2026-04-23 17:34 | 59.65878 | 17.93884 | 115 ft | 4 kts | 75° |
| 2026-04-23 17:35 | 59.65943 | 17.94388 | 121 ft | 77 kts | 76° |
| 2026-04-23 17:35 | 59.66438 | 17.98199 | 248 ft | 193 kts | 76° |
| 2026-04-23 17:35 | 59.66749 | 18.00706 | 1282 ft | 177 kts | 71° |
| 2026-04-23 17:36 | 59.67036 | 18.02913 | 2495 ft | 164 kts | 68° |
| 2026-04-23 17:36 | 59.67323 | 18.05272 | 2950 ft | 193 kts | 70° |
| 2026-04-23 17:36 | 59.67638 | 18.08069 | 3224 ft | 221 kts | 71° |
| 2026-04-23 17:36 | 59.67978 | 18.11167 | 3595 ft | 238 kts | 72° |
| 2026-04-23 17:37 | 59.68331 | 18.14427 | 4146 ft | 246 kts | 72° |
| 2026-04-23 17:37 | 59.68694 | 18.17786 | 4701 ft | 256 kts | 72° |
| 2026-04-23 17:37 | 59.69469 | 18.24940 | 4998 ft | 268 kts | 72° |
| 2026-04-23 17:38 | 59.69864 | 18.28594 | 5018 ft | 272 kts | 72° |
| 2026-04-23 17:38 | 59.70258 | 18.32248 | 5010 ft | 271 kts | 72° |
| 2026-04-23 17:38 | 59.70653 | 18.35924 | 5161 ft | 273 kts | 72° |
| 2026-04-23 17:38 | 59.71053 | 18.39626 | 5985 ft | 276 kts | 72° |
| 2026-04-23 17:39 | 59.71596 | 18.43242 | 6897 ft | 271 kts | 59° |
| 2026-04-23 17:39 | 59.72431 | 18.46571 | 7813 ft | 270 kts | 55° |
| 2026-04-23 17:39 | 59.73330 | 18.49802 | 8687 ft | 271 kts | 54° |
| 2026-04-23 17:39 | 59.74251 | 18.53086 | 9596 ft | 274 kts | 54° |
| 2026-04-23 17:40 | 59.75172 | 18.56410 | 10374 ft | 279 kts | 54° |
| 2026-04-23 17:40 | 59.76144 | 18.59941 | 10613 ft | 304 kts | 55° |
| 2026-04-23 17:40 | 59.77189 | 18.63784 | 10816 ft | 328 kts | 56° |
| 2026-04-23 17:40 | 59.78286 | 18.67885 | 11265 ft | 342 kts | 56° |
| 2026-04-23 17:41 | 59.79401 | 18.72116 | 11961 ft | 347 kts | 56° |
| 2026-04-23 17:41 | 59.81622 | 18.80623 | 13566 ft | 352 kts | 56° |
| 2026-04-23 17:41 | 59.82755 | 18.84976 | 14243 ft | 355 kts | 56° |
| 2026-04-23 17:42 | 59.85042 | 18.93785 | 15655 ft | 360 kts | 56° |
| 2026-04-23 17:42 | 59.86190 | 18.98223 | 16341 ft | 362 kts | 56° |
| 2026-04-23 17:42 | 59.87348 | 19.02703 | 17002 ft | 365 kts | 56° |
| 2026-04-23 17:43 | 59.88514 | 19.07224 | 17656 ft | 369 kts | 56° |
| 2026-04-23 17:43 | 59.89689 | 19.11784 | 18290 ft | 372 kts | 56° |
| 2026-04-23 17:43 | 59.90873 | 19.16395 | 18863 ft | 374 kts | 56° |
| 2026-04-23 17:43 | 59.92064 | 19.21030 | 19415 ft | 377 kts | 55° |
| 2026-04-23 17:44 | 59.93263 | 19.25710 | 19962 ft | 380 kts | 56° |
| 2026-04-23 17:44 | 59.94453 | 19.30375 | 20492 ft | 383 kts | 56° |
| 2026-04-23 17:44 | 59.96851 | 19.39979 | 21547 ft | 391 kts | 59° |
| 2026-04-23 17:45 | 59.97733 | 19.45205 | 22047 ft | 403 kts | 67° |
| 2026-04-23 17:45 | 59.99090 | 19.56174 | 23052 ft | 409 kts | 68° |
| 2026-04-23 17:45 | 59.99752 | 19.61661 | 23559 ft | 411 kts | 68° |
| 2026-04-23 17:46 | 60.01072 | 19.72724 | 24721 ft | 406 kts | 68° |
| 2026-04-23 17:46 | 60.01730 | 19.78250 | 24936 ft | 406 kts | 68° |
| 2026-04-23 17:46 | 60.02381 | 19.83729 | 24961 ft | 404 kts | 68° |
| 2026-04-23 17:47 | 60.03033 | 19.89217 | 24973 ft | 406 kts | 68° |
| 2026-04-23 17:47 | 60.03685 | 19.94709 | 24997 ft | 406 kts | 68° |
| 2026-04-23 17:47 | 60.04976 | 20.05672 | 25324 ft | 403 kts | 67° |
| 2026-04-23 17:48 | 60.05606 | 20.11058 | 25487 ft | 405 kts | 67° |
| 2026-04-23 17:48 | 60.06261 | 20.16625 | 25440 ft | 415 kts | 68° |
| 2026-04-23 17:48 | 60.06930 | 20.22308 | 25441 ft | 425 kts | 68° |
| 2026-04-23 17:48 | 60.07612 | 20.28148 | 25436 ft | 434 kts | 68° |
| 2026-04-23 17:49 | 60.08301 | 20.34097 | 25436 ft | 440 kts | 68° |
| 2026-04-23 17:49 | 60.08992 | 20.40125 | 25436 ft | 447 kts | 68° |
| 2026-04-23 17:49 | 60.09692 | 20.46257 | 25435 ft | 454 kts | 68° |
| 2026-04-23 17:49 | 60.10398 | 20.52479 | 25340 ft | 457 kts | 69° |
| 2026-04-23 17:50 | 60.11071 | 20.58515 | 25083 ft | 442 kts | 69° |
| 2026-04-23 17:50 | 60.12339 | 20.70080 | 24950 ft | 407 kts | 68° |
| 2026-04-23 17:50 | 60.12946 | 20.75580 | 24956 ft | 400 kts | 67° |
| 2026-04-23 17:51 | 60.13558 | 20.81040 | 24972 ft | 403 kts | 67° |
| 2026-04-23 17:51 | 60.14182 | 20.86562 | 24965 ft | 406 kts | 68° |
| 2026-04-23 17:51 | 60.15399 | 20.97578 | 25208 ft | 399 kts | 68° |
| 2026-04-23 17:52 | 60.15992 | 21.02996 | 25078 ft | 406 kts | 68° |
| 2026-04-23 17:52 | 60.17205 | 21.14072 | 24981 ft | 405 kts | 68° |
| 2026-04-23 17:52 | 60.17804 | 21.19602 | 24961 ft | 403 kts | 68° |
| 2026-04-23 17:53 | 60.18988 | 21.30606 | 24954 ft | 401 kts | 68° |
| 2026-04-23 17:53 | 60.19567 | 21.36022 | 24952 ft | 401 kts | 68° |
| 2026-04-23 17:53 | 60.20154 | 21.41538 | 24959 ft | 402 kts | 68° |
| 2026-04-23 17:54 | 60.20740 | 21.47067 | 24954 ft | 403 kts | 68° |
| 2026-04-23 17:54 | 60.21323 | 21.52595 | 24954 ft | 404 kts | 68° |
| 2026-04-23 17:54 | 60.22479 | 21.63623 | 24951 ft | 406 kts | 68° |
| 2026-04-23 17:55 | 60.23635 | 21.74759 | 24943 ft | 406 kts | 68° |
| 2026-04-23 17:55 | 60.24209 | 21.80332 | 24942 ft | 407 kts | 68° |
| 2026-04-23 17:55 | 60.24783 | 21.85925 | 24939 ft | 407 kts | 68° |
| 2026-04-23 17:56 | 60.25352 | 21.91497 | 24934 ft | 406 kts | 68° |
| 2026-04-23 17:56 | 60.26476 | 22.02580 | 24928 ft | 406 kts | 68° |
| 2026-04-23 17:56 | 60.27040 | 22.08173 | 24921 ft | 405 kts | 68° |
| 2026-04-23 17:57 | 60.27587 | 22.13673 | 24901 ft | 393 kts | 68° |
| 2026-04-23 17:57 | 60.28109 | 22.18997 | 24900 ft | 381 kts | 67° |
| 2026-04-23 17:57 | 60.29142 | 22.29387 | 24922 ft | 378 kts | 67° |
| 2026-04-23 17:58 | 60.29662 | 22.34591 | 24685 ft | 380 kts | 67° |
| 2026-04-23 17:58 | 60.30172 | 22.39723 | 24399 ft | 375 kts | 67° |
| 2026-04-23 17:58 | 60.30676 | 22.44876 | 24014 ft | 372 kts | 67° |
| 2026-04-23 17:58 | 60.31172 | 22.49981 | 23642 ft | 369 kts | 67° |
| 2026-04-23 17:59 | 60.31663 | 22.55044 | 23209 ft | 366 kts | 68° |
| 2026-04-23 17:59 | 60.32140 | 22.60073 | 22757 ft | 366 kts | 70° |
| 2026-04-23 17:59 | 60.32297 | 22.65316 | 22187 ft | 381 kts | 82° |
| 2026-04-23 17:59 | 60.32056 | 22.70708 | 21681 ft | 385 kts | 85° |
| 2026-04-23 18:00 | 60.31768 | 22.76016 | 21255 ft | 384 kts | 85° |
| 2026-04-23 18:00 | 60.31470 | 22.81350 | 20838 ft | 380 kts | 86° |
| 2026-04-23 18:00 | 60.31176 | 22.86625 | 20336 ft | 375 kts | 85° |
| 2026-04-23 18:00 | 60.30892 | 22.91853 | 19754 ft | 374 kts | 86° |
| 2026-04-23 18:01 | 60.30616 | 22.96994 | 19196 ft | 373 kts | 86° |
| 2026-04-23 18:01 | 60.30339 | 23.02173 | 18696 ft | 370 kts | 86° |
| 2026-04-23 18:01 | 60.30064 | 23.07310 | 18208 ft | 367 kts | 86° |
| 2026-04-23 18:01 | 60.29791 | 23.12402 | 17640 ft | 363 kts | 86° |
| 2026-04-23 18:02 | 60.29610 | 23.15743 | 17262 ft | 359 kts | 86° |
| 2026-04-23 18:02 | 60.29248 | 23.22395 | 16375 ft | 355 kts | 87° |
| 2026-04-23 18:02 | 60.28979 | 23.27328 | 15739 ft | 352 kts | 87° |
| 2026-04-23 18:02 | 60.28711 | 23.32217 | 15124 ft | 349 kts | 87° |
| 2026-04-23 18:03 | 60.28443 | 23.37054 | 14538 ft | 345 kts | 88° |
| 2026-04-23 18:03 | 60.28176 | 23.41848 | 13968 ft | 342 kts | 88° |
| 2026-04-23 18:03 | 60.27910 | 23.46587 | 13366 ft | 339 kts | 89° |
| 2026-04-23 18:03 | 60.27649 | 23.51212 | 12904 ft | 331 kts | 89° |
| 2026-04-23 18:04 | 60.27388 | 23.55720 | 12725 ft | 315 kts | 88° |
| 2026-04-23 18:04 | 60.27137 | 23.60037 | 12403 ft | 305 kts | 88° |
| 2026-04-23 18:04 | 60.26894 | 23.64227 | 12084 ft | 297 kts | 88° |
| 2026-04-23 18:04 | 60.26658 | 23.68326 | 11696 ft | 292 kts | 88° |
| 2026-04-23 18:05 | 60.26428 | 23.72334 | 11235 ft | 290 kts | 89° |
| 2026-04-23 18:05 | 60.26195 | 23.76364 | 10773 ft | 289 kts | 89° |
| 2026-04-23 18:05 | 60.25962 | 23.80378 | 10336 ft | 286 kts | 89° |
| 2026-04-23 18:05 | 60.25729 | 23.84356 | 9913 ft | 284 kts | 90° |
| 2026-04-23 18:06 | 60.25498 | 23.88245 | 9484 ft | 282 kts | 90° |
| 2026-04-23 18:06 | 60.25267 | 23.92140 | 9019 ft | 279 kts | 90° |
| 2026-04-23 18:06 | 60.25035 | 23.96019 | 8542 ft | 278 kts | 91° |
| 2026-04-23 18:06 | 60.24804 | 23.99862 | 8122 ft | 275 kts | 91° |
| 2026-04-23 18:07 | 60.24574 | 24.03669 | 7689 ft | 272 kts | 91° |
| 2026-04-23 18:07 | 60.24344 | 24.07445 | 7272 ft | 270 kts | 92° |
| 2026-04-23 18:07 | 60.24118 | 24.11141 | 6854 ft | 268 kts | 92° |
| 2026-04-23 18:07 | 60.23891 | 24.14841 | 6439 ft | 266 kts | 93° |
| 2026-04-23 18:08 | 60.23738 | 24.17329 | 6169 ft | 264 kts | 93° |
| 2026-04-23 18:08 | 60.23439 | 24.22157 | 5631 ft | 259 kts | 93° |
| 2026-04-23 18:08 | 60.23217 | 24.25705 | 5347 ft | 252 kts | 93° |
| 2026-04-23 18:08 | 60.23000 | 24.29158 | 5098 ft | 246 kts | 93° |
| 2026-04-23 18:09 | 60.22785 | 24.32606 | 5052 ft | 252 kts | 94° |
| 2026-04-23 18:09 | 60.22564 | 24.36127 | 5009 ft | 251 kts | 93° |
| 2026-04-23 18:09 | 60.22350 | 24.39473 | 5006 ft | 229 kts | 93° |
| 2026-04-23 18:09 | 60.22154 | 24.42489 | 4988 ft | 205 kts | 93° |
| 2026-04-23 18:10 | 60.22042 | 24.44316 | 4840 ft | 195 kts | 92° |
| 2026-04-23 18:10 | 60.21884 | 24.47022 | 4253 ft | 197 kts | 91° |
| 2026-04-23 18:10 | 60.21721 | 24.49718 | 3988 ft | 193 kts | 93° |
| 2026-04-23 18:10 | 60.21542 | 24.52431 | 3772 ft | 198 kts | 93° |
| 2026-04-23 18:11 | 60.21360 | 24.55158 | 3511 ft | 199 kts | 93° |
| 2026-04-23 18:11 | 60.21177 | 24.57907 | 3245 ft | 197 kts | 93° |
| 2026-04-23 18:11 | 60.20998 | 24.60625 | 2983 ft | 195 kts | 93° |
| 2026-04-23 18:11 | 60.20819 | 24.63343 | 2725 ft | 195 kts | 93° |
| 2026-04-23 18:12 | 60.20925 | 24.65979 | 2446 ft | 187 kts | 69° |
| 2026-04-23 18:12 | 60.21409 | 24.68410 | 2334 ft | 185 kts | 56° |
| 2026-04-23 18:12 | 60.22187 | 24.70393 | 2308 ft | 181 kts | 44° |
| 2026-04-23 18:12 | 60.23041 | 24.72242 | 2292 ft | 180 kts | 43° |
| 2026-04-23 18:13 | 60.23896 | 24.74100 | 2276 ft | 181 kts | 44° |
| 2026-04-23 18:13 | 60.24767 | 24.76006 | 2070 ft | 189 kts | 44° |
| 2026-04-23 18:13 | 60.25650 | 24.77929 | 2004 ft | 190 kts | 44° |
| 2026-04-23 18:13 | 60.26471 | 24.79815 | 1847 ft | 169 kts | 46° |
| 2026-04-23 18:14 | 60.27191 | 24.81556 | 1592 ft | 153 kts | 46° |
| 2026-04-23 18:14 | 60.27839 | 24.83184 | 1197 ft | 147 kts | 47° |
| 2026-04-23 18:14 | 60.28565 | 24.84671 | 837 ft | 148 kts | 39° |
| 2026-04-23 18:14 | 60.29368 | 24.86120 | 689 ft | 148 kts | 44° |
| 2026-04-23 18:15 | 60.30031 | 24.87607 | 439 ft | 141 kts | 45° |
| 2026-04-23 18:15 | 60.30732 | 24.89146 | 264 ft | 143 kts | 45° |
| 2026-04-23 18:15 | 60.31366 | 24.90542 | 155 ft | 125 kts | 45° |
| 2026-04-23 18:15 | 60.31887 | 24.91689 | 157 ft | 92 kts | 47° |
| 2026-04-23 18:16 | 60.32146 | 24.92273 | 165 ft | 37 kts | 52° |
| 2026-04-23 18:16 | 60.32232 | 24.92635 | 168 ft | 21 kts | 73° |